Provincetown, Massachusetts
Current Conditions -  °F | °C
As of 9:35 AM on Saturday 25 Oct 2014 (Local Time) from KPVC Reporting Station
Clear Clear  
Wind Chill: 55°   Ceiling: Unl
Heat Index: 55°   Visibility: 10mi
Dew Point:   Wind: 10mph
Humidity: 11%   Direction: 270°W
Pressure: 29.75"   Gusts: NA
Location:  42.06°N, 70.18°W
Report Text: KPVC 251335Z 27009KT 10SM CLR 13/M17 A2975 RMK AO1
Loading
Personal Weather Stations






























Interactive Weather Map
Tropical Storm Tracking
New forecast layout! Learn more

10-Day Weather Forecast

Advertisements
Track Severe Weather on mobile